sensor_id;sensor_type;location;lat;lon;timestamp;P1;P2;P0
56175;PMS5003;63065;51.082;17.016;2022-12-08T00:01:07;23;23;
56175;PMS5003;63065;51.082;17.016;2022-12-08T00:03:32;25;25;
56175;PMS5003;63065;51.082;17.016;2022-12-08T00:05:58;23;21;
56175;PMS5003;63065;51.082;17.016;2022-12-08T00:08:23;23;22;
56175;PMS5003;63065;51.082;17.016;2022-12-08T00:10:49;20;20;
56175;PMS5003;63065;51.082;17.016;2022-12-08T00:13:14;25;24;
56175;PMS5003;63065;51.082;17.016;2022-12-08T00:15:39;23;21;
56175;PMS5003;63065;51.082;17.016;2022-12-08T00:18:05;20;16;
56175;PMS5003;63065;51.082;17.016;2022-12-08T00:20:31;19;16;
56175;PMS5003;63065;51.082;17.016;2022-12-08T00:22:56;18;18;
56175;PMS5003;63065;51.082;17.016;2022-12-08T00:25:22;19;18;
56175;PMS5003;63065;51.082;17.016;2022-12-08T00:27:47;24;22;
56175;PMS5003;63065;51.082;17.016;2022-12-08T00:30:13;19;18;
56175;PMS5003;63065;51.082;17.016;2022-12-08T00:32:38;22;21;
56175;PMS5003;63065;51.082;17.016;2022-12-08T00:35:04;19;19;
56175;PMS5003;63065;51.082;17.016;2022-12-08T00:37:30;27;25;
56175;PMS5003;63065;51.082;17.016;2022-12-08T00:39:56;27;25;
56175;PMS5003;63065;51.082;17.016;2022-12-08T00:42:21;24;24;
56175;PMS5003;63065;51.082;17.016;2022-12-08T00:44:46;30;25;
56175;PMS5003;63065;51.082;17.016;2022-12-08T00:47:12;25;25;
56175;PMS5003;63065;51.082;17.016;2022-12-08T00:49:37;25;22;
56175;PMS5003;63065;51.082;17.016;2022-12-08T00:52:02;29;25;
56175;PMS5003;63065;51.082;17.016;2022-12-08T00:54:28;28;25;
56175;PMS5003;63065;51.082;17.016;2022-12-08T00:56:54;28;25;
56175;PMS5003;63065;51.082;17.016;2022-12-08T00:59:19;29;24;
56175;PMS5003;63065;51.082;17.016;2022-12-08T01:01:45;27;27;
56175;PMS5003;63065;51.082;17.016;2022-12-08T01:04:11;31;27;
56175;PMS5003;63065;51.082;17.016;2022-12-08T01:06:36;27;26;
56175;PMS5003;63065;51.082;17.016;2022-12-08T01:09:01;25;25;
56175;PMS5003;63065;51.082;17.016;2022-12-08T01:11:26;38;33;
56175;PMS5003;63065;51.082;17.016;2022-12-08T01:13:53;38;30;
56175;PMS5003;63065;51.082;17.016;2022-12-08T01:16:18;29;28;
56175;PMS5003;63065;51.082;17.016;2022-12-08T01:18:43;30;29;
56175;PMS5003;63065;51.082;17.016;2022-12-08T01:21:09;27;26;
56175;PMS5003;63065;51.082;17.016;2022-12-08T01:23:35;25;25;
56175;PMS5003;63065;51.082;17.016;2022-12-08T01:26:01;27;26;
56175;PMS5003;63065;51.082;17.016;2022-12-08T01:28:26;29;26;
56175;PMS5003;63065;51.082;17.016;2022-12-08T01:33:17;28;27;
56175;PMS5003;63065;51.082;17.016;2022-12-08T01:35:43;27;25;
56175;PMS5003;63065;51.082;17.016;2022-12-08T01:38:08;32;28;
56175;PMS5003;63065;51.082;17.016;2022-12-08T01:40:33;35;28;
56175;PMS5003;63065;51.082;17.016;2022-12-08T01:42:59;35;30;
56175;PMS5003;63065;51.082;17.016;2022-12-08T01:45:25;30;27;
56175;PMS5003;63065;51.082;17.016;2022-12-08T01:47:50;28;26;
56175;PMS5003;63065;51.082;17.016;2022-12-08T01:50:15;35;30;
56175;PMS5003;63065;51.082;17.016;2022-12-08T01:52:41;34;29;
56175;PMS5003;63065;51.082;17.016;2022-12-08T01:55:05;30;26;
56175;PMS5003;63065;51.082;17.016;2022-12-08T01:57:32;35;34;
56175;PMS5003;63065;51.082;17.016;2022-12-08T01:59:58;27;26;
56175;PMS5003;63065;51.082;17.016;2022-12-08T02:02:22;30;28;
56175;PMS5003;63065;51.082;17.016;2022-12-08T02:04:47;28;26;
56175;PMS5003;63065;51.082;17.016;2022-12-08T02:07:12;35;28;
56175;PMS5003;63065;51.082;17.016;2022-12-08T02:09:39;30;30;
56175;PMS5003;63065;51.082;17.016;2022-12-08T02:12:03;33;30;
56175;PMS5003;63065;51.082;17.016;2022-12-08T02:14:28;36;35;
56175;PMS5003;63065;51.082;17.016;2022-12-08T02:16:55;23;22;
56175;PMS5003;63065;51.082;17.016;2022-12-08T02:21:45;33;29;
56175;PMS5003;63065;51.082;17.016;2022-12-08T02:24:12;37;36;
56175;PMS5003;63065;51.082;17.016;2022-12-08T02:29:05;34;31;
56175;PMS5003;63065;51.082;17.016;2022-12-08T02:31:27;38;33;
56175;PMS5003;63065;51.082;17.016;2022-12-08T02:36:17;27;26;
56175;PMS5003;63065;51.082;17.016;2022-12-08T02:38:44;32;28;
56175;PMS5003;63065;51.082;17.016;2022-12-08T02:41:12;32;30;
56175;PMS5003;63065;51.082;17.016;2022-12-08T02:43:34;29;28;
56175;PMS5003;63065;51.082;17.016;2022-12-08T02:45:59;34;33;
56175;PMS5003;63065;51.082;17.016;2022-12-08T02:48:25;33;30;
56175;PMS5003;63065;51.082;17.016;2022-12-08T02:50:50;28;27;
56175;PMS5003;63065;51.082;17.016;2022-12-08T02:53:15;34;32;
56175;PMS5003;63065;51.082;17.016;2022-12-08T02:55:43;32;29;
56175;PMS5003;63065;51.082;17.016;2022-12-08T02:58:12;33;30;
56175;PMS5003;63065;51.082;17.016;2022-12-08T03:00:34;30;29;
56175;PMS5003;63065;51.082;17.016;2022-12-08T03:03:01;35;30;
56175;PMS5003;63065;51.082;17.016;2022-12-08T03:05:28;32;32;
56175;PMS5003;63065;51.082;17.016;2022-12-08T03:07:51;33;30;
56175;PMS5003;63065;51.082;17.016;2022-12-08T03:10:15;28;27;
56175;PMS5003;63065;51.082;17.016;2022-12-08T03:12:40;25;23;
56175;PMS5003;63065;51.082;17.016;2022-12-08T03:15:05;24;22;
56175;PMS5003;63065;51.082;17.016;2022-12-08T03:17:30;29;27;
56175;PMS5003;63065;51.082;17.016;2022-12-08T03:19:55;33;27;
56175;PMS5003;63065;51.082;17.016;2022-12-08T03:22:20;32;27;
56175;PMS5003;63065;51.082;17.016;2022-12-08T03:24:45;23;23;
56175;PMS5003;63065;51.082;17.016;2022-12-08T03:27:11;29;26;
56175;PMS5003;63065;51.082;17.016;2022-12-08T03:29:36;29;29;
56175;PMS5003;63065;51.082;17.016;2022-12-08T03:32:05;30;28;
56175;PMS5003;63065;51.082;17.016;2022-12-08T03:34:27;32;31;
56175;PMS5003;63065;51.082;17.016;2022-12-08T03:36:53;34;29;
56175;PMS5003;63065;51.082;17.016;2022-12-08T03:39:18;34;31;
56175;PMS5003;63065;51.082;17.016;2022-12-08T03:41:43;33;27;
56175;PMS5003;63065;51.082;17.016;2022-12-08T03:44:08;24;24;
56175;PMS5003;63065;51.082;17.016;2022-12-08T03:46:34;34;31;
56175;PMS5003;63065;51.082;17.016;2022-12-08T03:48:59;31;28;
56175;PMS5003;63065;51.082;17.016;2022-12-08T03:51:25;31;30;
56175;PMS5003;63065;51.082;17.016;2022-12-08T03:53:50;32;26;
56175;PMS5003;63065;51.082;17.016;2022-12-08T03:56:23;30;29;
56175;PMS5003;63065;51.082;17.016;2022-12-08T03:58:41;32;25;
56175;PMS5003;63065;51.082;17.016;2022-12-08T04:01:07;23;23;
56175;PMS5003;63065;51.082;17.016;2022-12-08T04:03:32;31;27;
56175;PMS5003;63065;51.082;17.016;2022-12-08T04:05:58;27;26;
56175;PMS5003;63065;51.082;17.016;2022-12-08T04:08:24;28;28;
56175;PMS5003;63065;51.082;17.016;2022-12-08T04:10:49;33;33;
56175;PMS5003;63065;51.082;17.016;2022-12-08T04:13:15;33;28;
56175;PMS5003;63065;51.082;17.016;2022-12-08T04:15:43;32;30;
56175;PMS5003;63065;51.082;17.016;2022-12-08T04:18:05;28;28;
56175;PMS5003;63065;51.082;17.016;2022-12-08T04:20:30;43;35;
56175;PMS5003;63065;51.082;17.016;2022-12-08T04:22:56;37;32;
56175;PMS5003;63065;51.082;17.016;2022-12-08T04:25:21;39;35;
56175;PMS5003;63065;51.082;17.016;2022-12-08T04:27:46;29;29;
56175;PMS5003;63065;51.082;17.016;2022-12-08T04:30:12;34;28;
56175;PMS5003;63065;51.082;17.016;2022-12-08T04:32:37;33;32;
56175;PMS5003;63065;51.082;17.016;2022-12-08T04:35:03;32;28;
56175;PMS5003;63065;51.082;17.016;2022-12-08T04:37:28;35;33;
56175;PMS5003;63065;51.082;17.016;2022-12-08T04:39:53;33;28;
56175;PMS5003;63065;51.082;17.016;2022-12-08T04:42:18;37;37;
56175;PMS5003;63065;51.082;17.016;2022-12-08T04:44:44;34;34;
56175;PMS5003;63065;51.082;17.016;2022-12-08T04:47:09;40;34;
56175;PMS5003;63065;51.082;17.016;2022-12-08T04:49:35;37;35;
56175;PMS5003;63065;51.082;17.016;2022-12-08T04:52:00;34;32;
56175;PMS5003;63065;51.082;17.016;2022-12-08T04:54:26;32;28;
56175;PMS5003;63065;51.082;17.016;2022-12-08T04:56:51;34;32;
56175;PMS5003;63065;51.082;17.016;2022-12-08T04:59:17;39;35;
56175;PMS5003;63065;51.082;17.016;2022-12-08T05:01:42;38;34;
56175;PMS5003;63065;51.082;17.016;2022-12-08T05:04:07;35;33;
56175;PMS5003;63065;51.082;17.016;2022-12-08T05:06:33;35;34;
56175;PMS5003;63065;51.082;17.016;2022-12-08T05:08:58;37;34;
56175;PMS5003;63065;51.082;17.016;2022-12-08T05:11:24;37;35;
56175;PMS5003;63065;51.082;17.016;2022-12-08T05:13:50;37;35;
56175;PMS5003;63065;51.082;17.016;2022-12-08T05:16:15;37;36;
56175;PMS5003;63065;51.082;17.016;2022-12-08T05:18:40;45;38;
56175;PMS5003;63065;51.082;17.016;2022-12-08T05:21:06;46;43;
56175;PMS5003;63065;51.082;17.016;2022-12-08T05:23:31;58;48;
56175;PMS5003;63065;51.082;17.016;2022-12-08T05:25:57;56;49;
56175;PMS5003;63065;51.082;17.016;2022-12-08T05:28:22;54;51;
56175;PMS5003;63065;51.082;17.016;2022-12-08T05:30:48;56;50;
56175;PMS5003;63065;51.082;17.016;2022-12-08T05:33:13;52;47;
56175;PMS5003;63065;51.082;17.016;2022-12-08T05:35:38;48;45;
56175;PMS5003;63065;51.082;17.016;2022-12-08T05:38:04;41;38;
56175;PMS5003;63065;51.082;17.016;2022-12-08T05:40:29;44;42;
56175;PMS5003;63065;51.082;17.016;2022-12-08T05:42:55;45;38;
56175;PMS5003;63065;51.082;17.016;2022-12-08T05:45:20;36;34;
56175;PMS5003;63065;51.082;17.016;2022-12-08T05:47:46;41;37;
56175;PMS5003;63065;51.082;17.016;2022-12-08T05:50:11;39;38;
56175;PMS5003;63065;51.082;17.016;2022-12-08T05:52:37;44;38;
56175;PMS5003;63065;51.082;17.016;2022-12-08T05:55:02;41;37;
56175;PMS5003;63065;51.082;17.016;2022-12-08T05:57:28;38;35;
56175;PMS5003;63065;51.082;17.016;2022-12-08T05:59:53;43;42;
56175;PMS5003;63065;51.082;17.016;2022-12-08T06:02:18;42;35;
56175;PMS5003;63065;51.082;17.016;2022-12-08T06:04:43;46;42;
56175;PMS5003;63065;51.082;17.016;2022-12-08T06:07:09;37;35;
56175;PMS5003;63065;51.082;17.016;2022-12-08T06:09:34;32;27;
56175;PMS5003;63065;51.082;17.016;2022-12-08T06:12:00;37;33;
56175;PMS5003;63065;51.082;17.016;2022-12-08T06:14:25;35;30;
56175;PMS5003;63065;51.082;17.016;2022-12-08T06:16:51;34;33;
56175;PMS5003;63065;51.082;17.016;2022-12-08T06:19:16;43;42;
56175;PMS5003;63065;51.082;17.016;2022-12-08T06:21:42;33;32;
56175;PMS5003;63065;51.082;17.016;2022-12-08T06:24:07;40;38;
56175;PMS5003;63065;51.082;17.016;2022-12-08T06:26:33;38;37;
56175;PMS5003;63065;51.082;17.016;2022-12-08T06:28:58;37;35;
56175;PMS5003;63065;51.082;17.016;2022-12-08T06:31:24;41;33;
56175;PMS5003;63065;51.082;17.016;2022-12-08T06:33:49;36;32;
56175;PMS5003;63065;51.082;17.016;2022-12-08T06:36:15;35;35;
56175;PMS5003;63065;51.082;17.016;2022-12-08T06:38:40;43;37;
56175;PMS5003;63065;51.082;17.016;2022-12-08T06:41:05;37;34;
56175;PMS5003;63065;51.082;17.016;2022-12-08T06:43:31;40;33;
56175;PMS5003;63065;51.082;17.016;2022-12-08T06:45:56;36;34;
56175;PMS5003;63065;51.082;17.016;2022-12-08T06:48:21;40;36;
56175;PMS5003;63065;51.082;17.016;2022-12-08T06:50:47;40;38;
56175;PMS5003;63065;51.082;17.016;2022-12-08T06:53:12;40;35;
56175;PMS5003;63065;51.082;17.016;2022-12-08T06:55:41;40;34;
56175;PMS5003;63065;51.082;17.016;2022-12-08T06:58:02;42;39;
56175;PMS5003;63065;51.082;17.016;2022-12-08T07:00:27;31;28;
56175;PMS5003;63065;51.082;17.016;2022-12-08T07:02:53;39;35;
56175;PMS5003;63065;51.082;17.016;2022-12-08T07:05:18;41;36;
56175;PMS5003;63065;51.082;17.016;2022-12-08T07:07:44;32;29;
56175;PMS5003;63065;51.082;17.016;2022-12-08T07:10:09;31;29;
56175;PMS5003;63065;51.082;17.016;2022-12-08T07:12:35;41;31;
56175;PMS5003;63065;51.082;17.016;2022-12-08T07:15:00;38;38;
56175;PMS5003;63065;51.082;17.016;2022-12-08T07:17:25;41;40;
56175;PMS5003;63065;51.082;17.016;2022-12-08T07:19:51;38;37;
56175;PMS5003;63065;51.082;17.016;2022-12-08T07:22:17;43;40;
56175;PMS5003;63065;51.082;17.016;2022-12-08T07:24:43;35;35;
56175;PMS5003;63065;51.082;17.016;2022-12-08T07:27:08;48;44;
56175;PMS5003;63065;51.082;17.016;2022-12-08T07:29:33;41;38;
56175;PMS5003;63065;51.082;17.016;2022-12-08T07:31:58;38;38;
56175;PMS5003;63065;51.082;17.016;2022-12-08T07:34:24;38;35;
56175;PMS5003;63065;51.082;17.016;2022-12-08T07:36:50;42;40;
56175;PMS5003;63065;51.082;17.016;2022-12-08T07:39:15;41;37;
56175;PMS5003;63065;51.082;17.016;2022-12-08T07:41:41;38;32;
56175;PMS5003;63065;51.082;17.016;2022-12-08T07:44:07;39;39;
56175;PMS5003;63065;51.082;17.016;2022-12-08T07:46:32;38;32;
56175;PMS5003;63065;51.082;17.016;2022-12-08T07:48:58;38;38;
56175;PMS5003;63065;51.082;17.016;2022-12-08T07:51:23;33;30;
56175;PMS5003;63065;51.082;17.016;2022-12-08T07:53:48;32;32;
56175;PMS5003;63065;51.082;17.016;2022-12-08T07:56:14;33;31;
56175;PMS5003;63065;51.082;17.016;2022-12-08T07:58:39;40;38;
56175;PMS5003;63065;51.082;17.016;2022-12-08T08:01:04;37;37;
56175;PMS5003;63065;51.082;17.016;2022-12-08T08:03:30;41;38;
56175;PMS5003;63065;51.082;17.016;2022-12-08T08:06:01;33;29;
56175;PMS5003;63065;51.082;17.016;2022-12-08T08:08:21;52;47;
56175;PMS5003;63065;51.082;17.016;2022-12-08T08:10:47;37;36;
56175;PMS5003;63065;51.082;17.016;2022-12-08T08:13:12;32;31;
56175;PMS5003;63065;51.082;17.016;2022-12-08T08:15:37;39;34;
56175;PMS5003;63065;51.082;17.016;2022-12-08T08:18:02;39;37;
56175;PMS5003;63065;51.082;17.016;2022-12-08T08:20:28;42;32;
56175;PMS5003;63065;51.082;17.016;2022-12-08T08:22:54;37;34;
56175;PMS5003;63065;51.082;17.016;2022-12-08T08:25:19;38;33;
56175;PMS5003;63065;51.082;17.016;2022-12-08T08:27:45;32;27;
56175;PMS5003;63065;51.082;17.016;2022-12-08T08:30:11;40;33;
56175;PMS5003;63065;51.082;17.016;2022-12-08T08:32:36;35;34;
56175;PMS5003;63065;51.082;17.016;2022-12-08T08:35:01;32;31;
56175;PMS5003;63065;51.082;17.016;2022-12-08T08:37:26;31;27;
56175;PMS5003;63065;51.082;17.016;2022-12-08T08:39:52;36;35;
56175;PMS5003;63065;51.082;17.016;2022-12-08T08:42:18;35;33;
56175;PMS5003;63065;51.082;17.016;2022-12-08T08:44:43;41;31;
56175;PMS5003;63065;51.082;17.016;2022-12-08T08:47:08;29;27;
56175;PMS5003;63065;51.082;17.016;2022-12-08T08:49:34;28;28;
56175;PMS5003;63065;51.082;17.016;2022-12-08T08:52:00;37;32;
56175;PMS5003;63065;51.082;17.016;2022-12-08T08:54:27;30;24;
56175;PMS5003;63065;51.082;17.016;2022-12-08T08:56:50;39;31;
56175;PMS5003;63065;51.082;17.016;2022-12-08T08:59:16;26;24;
56175;PMS5003;63065;51.082;17.016;2022-12-08T09:01:42;24;23;
56175;PMS5003;63065;51.082;17.016;2022-12-08T09:04:08;28;26;
56175;PMS5003;63065;51.082;17.016;2022-12-08T09:06:32;22;21;
56175;PMS5003;63065;51.082;17.016;2022-12-08T09:08:58;29;26;
56175;PMS5003;63065;51.082;17.016;2022-12-08T09:11:23;32;28;
56175;PMS5003;63065;51.082;17.016;2022-12-08T09:13:50;35;32;
56175;PMS5003;63065;51.082;17.016;2022-12-08T09:16:14;24;23;
56175;PMS5003;63065;51.082;17.016;2022-12-08T09:18:39;28;24;
56175;PMS5003;63065;51.082;17.016;2022-12-08T09:21:05;23;22;
56175;PMS5003;63065;51.082;17.016;2022-12-08T09:23:30;25;25;
56175;PMS5003;63065;51.082;17.016;2022-12-08T09:25:55;24;20;
56175;PMS5003;63065;51.082;17.016;2022-12-08T09:28:21;26;24;
56175;PMS5003;63065;51.082;17.016;2022-12-08T09:30:46;25;23;
56175;PMS5003;63065;51.082;17.016;2022-12-08T09:33:11;24;23;
56175;PMS5003;63065;51.082;17.016;2022-12-08T09:35:37;27;24;
56175;PMS5003;63065;51.082;17.016;2022-12-08T09:38:02;21;21;
56175;PMS5003;63065;51.082;17.016;2022-12-08T09:40:27;22;19;
56175;PMS5003;63065;51.082;17.016;2022-12-08T09:42:54;25;21;
56175;PMS5003;63065;51.082;17.016;2022-12-08T09:45:19;26;25;
56175;PMS5003;63065;51.082;17.016;2022-12-08T09:47:44;21;20;
56175;PMS5003;63065;51.082;17.016;2022-12-08T09:50:11;22;18;
56175;PMS5003;63065;51.082;17.016;2022-12-08T09:52:35;30;25;
56175;PMS5003;63065;51.082;17.016;2022-12-08T09:55:00;19;18;
56175;PMS5003;63065;51.082;17.016;2022-12-08T09:57:24;25;21;
56175;PMS5003;63065;51.082;17.016;2022-12-08T09:59:51;22;22;
56175;PMS5003;63065;51.082;17.016;2022-12-08T10:02:19;21;21;
56175;PMS5003;63065;51.082;17.016;2022-12-08T10:04:40;19;17;
56175;PMS5003;63065;51.082;17.016;2022-12-08T10:07:08;25;23;
56175;PMS5003;63065;51.082;17.016;2022-12-08T10:09:34;21;20;
56175;PMS5003;63065;51.082;17.016;2022-12-08T10:11:58;21;21;
56175;PMS5003;63065;51.082;17.016;2022-12-08T10:14:23;20;20;
56175;PMS5003;63065;51.082;17.016;2022-12-08T10:16:48;20;20;
56175;PMS5003;63065;51.082;17.016;2022-12-08T10:19:13;29;27;
56175;PMS5003;63065;51.082;17.016;2022-12-08T10:21:39;23;20;
56175;PMS5003;63065;51.082;17.016;2022-12-08T10:24:08;22;21;
56175;PMS5003;63065;51.082;17.016;2022-12-08T10:26:30;19;19;
56175;PMS5003;63065;51.082;17.016;2022-12-08T10:28:55;24;21;
56175;PMS5003;63065;51.082;17.016;2022-12-08T10:31:22;22;20;
56175;PMS5003;63065;51.082;17.016;2022-12-08T10:33:48;25;22;
56175;PMS5003;63065;51.082;17.016;2022-12-08T10:36:12;27;25;
56175;PMS5003;63065;51.082;17.016;2022-12-08T10:38:38;22;21;
56175;PMS5003;63065;51.082;17.016;2022-12-08T10:41:04;23;22;
56175;PMS5003;63065;51.082;17.016;2022-12-08T10:43:28;23;23;
56175;PMS5003;63065;51.082;17.016;2022-12-08T10:45:54;23;22;
56175;PMS5003;63065;51.082;17.016;2022-12-08T10:48:21;27;24;
56175;PMS5003;63065;51.082;17.016;2022-12-08T10:50:45;27;27;
56175;PMS5003;63065;51.082;17.016;2022-12-08T10:53:12;33;30;
56175;PMS5003;63065;51.082;17.016;2022-12-08T10:55:38;27;24;
56175;PMS5003;63065;51.082;17.016;2022-12-08T10:58:01;29;26;
56175;PMS5003;63065;51.082;17.016;2022-12-08T11:00:27;23;22;
56175;PMS5003;63065;51.082;17.016;2022-12-08T11:02:53;28;26;
56175;PMS5003;63065;51.082;17.016;2022-12-08T11:05:18;31;25;
56175;PMS5003;63065;51.082;17.016;2022-12-08T11:07:45;34;30;
56175;PMS5003;63065;51.082;17.016;2022-12-08T11:10:14;28;23;
56175;PMS5003;63065;51.082;17.016;2022-12-08T11:12:34;48;41;
56175;PMS5003;63065;51.082;17.016;2022-12-08T11:15:00;26;24;
56175;PMS5003;63065;51.082;17.016;2022-12-08T11:17:26;29;28;
56175;PMS5003;63065;51.082;17.016;2022-12-08T11:19:54;38;29;
56175;PMS5003;63065;51.082;17.016;2022-12-08T11:22:20;35;32;
56175;PMS5003;63065;51.082;17.016;2022-12-08T11:24:41;42;40;
56175;PMS5003;63065;51.082;17.016;2022-12-08T11:27:07;35;31;
56175;PMS5003;63065;51.082;17.016;2022-12-08T11:29:34;28;26;
56175;PMS5003;63065;51.082;17.016;2022-12-08T11:31:59;31;28;
56175;PMS5003;63065;51.082;17.016;2022-12-08T11:34:28;36;32;
56175;PMS5003;63065;51.082;17.016;2022-12-08T11:36:50;24;24;
56175;PMS5003;63065;51.082;17.016;2022-12-08T11:39:15;26;25;
56175;PMS5003;63065;51.082;17.016;2022-12-08T11:41:41;22;22;
56175;PMS5003;63065;51.082;17.016;2022-12-08T11:44:09;33;29;
56175;PMS5003;63065;51.082;17.016;2022-12-08T11:46:33;24;23;
56175;PMS5003;63065;51.082;17.016;2022-12-08T11:49:00;25;25;
56175;PMS5003;63065;51.082;17.016;2022-12-08T11:51:26;25;24;
56175;PMS5003;63065;51.082;17.016;2022-12-08T11:53:52;28;27;
56175;PMS5003;63065;51.082;17.016;2022-12-08T11:56:15;30;26;
56175;PMS5003;63065;51.082;17.016;2022-12-08T11:58:40;28;27;
56175;PMS5003;63065;51.082;17.016;2022-12-08T12:01:04;31;26;
56175;PMS5003;63065;51.082;17.016;2022-12-08T12:03:31;39;34;
56175;PMS5003;63065;51.082;17.016;2022-12-08T12:06:01;30;26;
56175;PMS5003;63065;51.082;17.016;2022-12-08T12:08:25;25;24;
56175;PMS5003;63065;51.082;17.016;2022-12-08T12:10:49;31;30;
56175;PMS5003;63065;51.082;17.016;2022-12-08T12:13:18;28;25;
56175;PMS5003;63065;51.082;17.016;2022-12-08T12:18:03;30;29;
56175;PMS5003;63065;51.082;17.016;2022-12-08T12:20:28;31;31;
56175;PMS5003;63065;51.082;17.016;2022-12-08T12:22:55;36;33;
56175;PMS5003;63065;51.082;17.016;2022-12-08T12:25:20;32;28;
56175;PMS5003;63065;51.082;17.016;2022-12-08T12:27:44;33;32;
56175;PMS5003;63065;51.082;17.016;2022-12-08T12:30:18;34;32;
56175;PMS5003;63065;51.082;17.016;2022-12-08T12:32:39;30;29;
56175;PMS5003;63065;51.082;17.016;2022-12-08T12:35:01;34;31;
56175;PMS5003;63065;51.082;17.016;2022-12-08T12:37:34;34;32;
56175;PMS5003;63065;51.082;17.016;2022-12-08T12:39:54;35;30;
56175;PMS5003;63065;51.082;17.016;2022-12-08T12:44:42;27;27;
56175;PMS5003;63065;51.082;17.016;2022-12-08T12:47:10;34;28;
56175;PMS5003;63065;51.082;17.016;2022-12-08T12:51:58;31;28;
56175;PMS5003;63065;51.082;17.016;2022-12-08T12:54:25;29;26;
56175;PMS5003;63065;51.082;17.016;2022-12-08T12:56:51;29;27;
56175;PMS5003;63065;51.082;17.016;2022-12-08T13:01:45;22;22;
56175;PMS5003;63065;51.082;17.016;2022-12-08T13:04:07;26;24;
56175;PMS5003;63065;51.082;17.016;2022-12-08T13:06:33;29;26;
56175;PMS5003;63065;51.082;17.016;2022-12-08T13:08:57;18;18;
56175;PMS5003;63065;51.082;17.016;2022-12-08T13:11:22;28;27;
56175;PMS5003;63065;51.082;17.016;2022-12-08T13:16:15;29;26;
56175;PMS5003;63065;51.082;17.016;2022-12-08T13:18:40;27;27;
56175;PMS5003;63065;51.082;17.016;2022-12-08T13:21:13;35;35;
56175;PMS5003;63065;51.082;17.016;2022-12-08T13:28:23;33;30;
56175;PMS5003;63065;51.082;17.016;2022-12-08T13:30:47;28;28;
56175;PMS5003;63065;51.082;17.016;2022-12-08T13:33:14;37;30;
56175;PMS5003;63065;51.082;17.016;2022-12-08T13:35:38;28;28;
56175;PMS5003;63065;51.082;17.016;2022-12-08T13:38:03;30;29;
56175;PMS5003;63065;51.082;17.016;2022-12-08T13:40:28;33;28;
56175;PMS5003;63065;51.082;17.016;2022-12-08T13:42:55;45;44;
56175;PMS5003;63065;51.082;17.016;2022-12-08T13:45:20;28;27;
56175;PMS5003;63065;51.082;17.016;2022-12-08T13:47:46;29;27;
56175;PMS5003;63065;51.082;17.016;2022-12-08T13:50:12;35;29;
56175;PMS5003;63065;51.082;17.016;2022-12-08T13:52:35;32;28;
56175;PMS5003;63065;51.082;17.016;2022-12-08T13:55:00;33;26;
56175;PMS5003;63065;51.082;17.016;2022-12-08T13:57:27;37;32;
56175;PMS5003;63065;51.082;17.016;2022-12-08T13:59:51;35;32;
56175;PMS5003;63065;51.082;17.016;2022-12-08T14:02:17;26;26;
56175;PMS5003;63065;51.082;17.016;2022-12-08T14:04:43;38;32;
56175;PMS5003;63065;51.082;17.016;2022-12-08T14:07:07;34;31;
56175;PMS5003;63065;51.082;17.016;2022-12-08T14:09:33;35;35;
56175;PMS5003;63065;51.082;17.016;2022-12-08T14:11:59;30;28;
56175;PMS5003;63065;51.082;17.016;2022-12-08T14:14:26;34;32;
56175;PMS5003;63065;51.082;17.016;2022-12-08T14:16:50;32;31;
56175;PMS5003;63065;51.082;17.016;2022-12-08T14:19:16;36;30;
56175;PMS5003;63065;51.082;17.016;2022-12-08T14:21:39;34;32;
56175;PMS5003;63065;51.082;17.016;2022-12-08T14:24:05;38;36;
56175;PMS5003;63065;51.082;17.016;2022-12-08T14:26:31;49;45;
56175;PMS5003;63065;51.082;17.016;2022-12-08T14:28:56;48;44;
56175;PMS5003;63065;51.082;17.016;2022-12-08T14:31:22;38;38;
56175;PMS5003;63065;51.082;17.016;2022-12-08T14:33:47;42;39;
56175;PMS5003;63065;51.082;17.016;2022-12-08T14:36:12;41;39;
56175;PMS5003;63065;51.082;17.016;2022-12-08T14:38:38;43;39;
56175;PMS5003;63065;51.082;17.016;2022-12-08T14:41:04;39;37;
56175;PMS5003;63065;51.082;17.016;2022-12-08T14:43:29;34;34;
56175;PMS5003;63065;51.082;17.016;2022-12-08T14:45:54;49;38;
56175;PMS5003;63065;51.082;17.016;2022-12-08T14:48:20;41;39;
56175;PMS5003;63065;51.082;17.016;2022-12-08T14:50:52;37;35;
56175;PMS5003;63065;51.082;17.016;2022-12-08T14:53:12;39;33;
56175;PMS5003;63065;51.082;17.016;2022-12-08T14:55:36;45;38;
56175;PMS5003;63065;51.082;17.016;2022-12-08T14:58:02;42;36;
56175;PMS5003;63065;51.082;17.016;2022-12-08T15:00:28;45;40;
56175;PMS5003;63065;51.082;17.016;2022-12-08T15:02:54;36;35;
56175;PMS5003;63065;51.082;17.016;2022-12-08T15:05:19;41;37;
56175;PMS5003;63065;51.082;17.016;2022-12-08T15:07:45;42;37;
56175;PMS5003;63065;51.082;17.016;2022-12-08T15:12:34;40;39;
56175;PMS5003;63065;51.082;17.016;2022-12-08T15:15:00;39;38;
56175;PMS5003;63065;51.082;17.016;2022-12-08T15:17:28;44;41;
56175;PMS5003;63065;51.082;17.016;2022-12-08T15:19:54;54;44;
56175;PMS5003;63065;51.082;17.016;2022-12-08T15:22:16;42;36;
56175;PMS5003;63065;51.082;17.016;2022-12-08T15:24:42;43;40;
56175;PMS5003;63065;51.082;17.016;2022-12-08T15:27:08;61;55;
56175;PMS5003;63065;51.082;17.016;2022-12-08T15:29:33;46;42;
56175;PMS5003;63065;51.082;17.016;2022-12-08T15:31:59;51;46;
56175;PMS5003;63065;51.082;17.016;2022-12-08T15:34:24;48;44;
56175;PMS5003;63065;51.082;17.016;2022-12-08T15:36:51;57;52;
56175;PMS5003;63065;51.082;17.016;2022-12-08T15:39:19;59;53;
56175;PMS5003;63065;51.082;17.016;2022-12-08T15:41:41;49;46;
56175;PMS5003;63065;51.082;17.016;2022-12-08T15:44:06;55;51;
56175;PMS5003;63065;51.082;17.016;2022-12-08T15:46:31;54;46;
56175;PMS5003;63065;51.082;17.016;2022-12-08T15:48:56;58;50;
56175;PMS5003;63065;51.082;17.016;2022-12-08T15:51:22;55;52;
56175;PMS5003;63065;51.082;17.016;2022-12-08T15:53:47;59;53;
56175;PMS5003;63065;51.082;17.016;2022-12-08T15:56:13;60;59;
56175;PMS5003;63065;51.082;17.016;2022-12-08T15:58:38;82;71;
56175;PMS5003;63065;51.082;17.016;2022-12-08T16:01:04;107;100;
56175;PMS5003;63065;51.082;17.016;2022-12-08T16:03:29;98;85;
56175;PMS5003;63065;51.082;17.016;2022-12-08T16:05:55;81;78;
56175;PMS5003;63065;51.082;17.016;2022-12-08T16:08:20;80;70;
56175;PMS5003;63065;51.082;17.016;2022-12-08T16:10:46;72;69;
56175;PMS5003;63065;51.082;17.016;2022-12-08T16:13:12;86;71;
56175;PMS5003;63065;51.082;17.016;2022-12-08T16:15:38;82;72;
56175;PMS5003;63065;51.082;17.016;2022-12-08T16:18:02;81;71;